Vanderbilt, Michigan
Current Conditions -  °F | °C
As of 10:53 PM on Tuesday 21 Oct 2014 (Local Time) from KGLR Reporting Station
Clear Clear  
Wind Chill: 33°   Ceiling: Unl
Heat Index: 33°   Visibility: 10mi
Dew Point: 27°   Wind: 0mph
Humidity: 78%   Direction: NA
Pressure: 30.28"   Gusts: NA
Location:  45.14°N, 84.66°W
Report Text: KGLR 220253Z AUTO 00000KT 10SM CLR 01/M03 A3028 RMK AO2 SLP266 T00061028 51012
Loading
Personal Weather Stations






























Interactive Weather Map
Tropical Storm Tracking
New forecast layout! Learn more

10-Day Weather Forecast

Advertisements
Track Severe Weather on mobile